Time;durP1;ratioP1;P1;durP2;ratioP2;P2;SDS_P1;SDS_P2;PMS_P1;PMS_P2;Temp;Humidity;BMP_temperature;BMP_pressure;BME280_temperature;BME280_humidity;BME280_pressure;Samples;Min_cycle;Max_cycle;Signal;HPM_P1;HPM_P2
2021/12/10 00:00:31;;;;;;;13.65;9.35;;;21.80;49.50;;;;;;5018609;28;20548;-63
2021/12/10 00:02:59;;;;;;;14.00;9.40;;;21.80;49.50;;;;;;5008206;28;20034;-64
2021/12/10 00:05:30;;;;;;;13.00;9.27;;;21.70;49.50;;;;;;5015749;28;20026;-63
2021/12/10 00:07:57;;;;;;;13.45;9.45;;;21.70;49.50;;;;;;5018608;28;20112;-64
2021/12/10 00:10:36;;;;;;;12.85;8.68;;;21.70;49.50;;;;;;5017638;28;20044;-63
2021/12/10 00:13:03;;;;;;;12.02;8.82;;;21.70;49.60;;;;;;5019191;28;20045;-64
2021/12/10 00:15:31;;;;;;;14.10;9.30;;;21.70;49.60;;;;;;5020214;28;20028;-64
2021/12/10 00:17:59;;;;;;;11.95;8.93;;;21.70;49.60;;;;;;5015232;28;20037;-64
2021/12/10 00:20:27;;;;;;;13.30;9.95;;;21.70;49.60;;;;;;5023487;28;20025;-64
2021/12/10 00:22:59;;;;;;;14.80;9.30;;;21.60;49.60;;;;;;5015877;28;20041;-62
2021/12/10 00:25:37;;;;;;;13.18;9.32;;;21.60;49.60;;;;;;5017609;28;20033;-64
2021/12/10 00:28:17;;;;;;;13.25;9.15;;;21.60;49.70;;;;;;5020831;28;20026;-63
2021/12/10 00:31:19;;;;;;;10.88;8.77;;;21.60;49.70;;;;;;5012033;28;20049;-63
2021/12/10 00:34:02;;;;;;;12.98;9.30;;;21.60;49.80;;;;;;5016754;28;20065;-63
2021/12/10 00:36:29;;;;;;;12.43;8.98;;;21.60;49.70;;;;;;5019935;28;20032;-63
2021/12/10 00:38:55;;;;;;;13.20;9.18;;;21.50;49.70;;;;;;5016170;28;20705;-64
2021/12/10 00:41:22;;;;;;;11.13;8.35;;;21.50;49.70;;;;;;5022990;28;20021;-63
2021/12/10 00:43:48;;;;;;;12.18;8.93;;;21.50;49.70;;;;;;5019352;28;20064;-64
2021/12/10 00:46:15;;;;;;;11.82;7.97;;;21.50;49.70;;;;;;5019466;28;20053;-63
2021/12/10 00:48:40;;;;;;;11.40;8.25;;;21.50;49.80;;;;;;5015318;28;20034;-63
2021/12/10 00:51:08;;;;;;;11.77;8.27;;;21.50;49.80;;;;;;5019802;28;20346;-63
2021/12/10 00:53:34;;;;;;;10.65;7.82;;;21.50;49.90;;;;;;5016574;28;20038;-63
2021/12/10 00:56:00;;;;;;;11.98;8.40;;;21.50;49.80;;;;;;5021910;28;20037;-64
2021/12/10 00:58:27;;;;;;;12.95;8.93;;;21.40;49.80;;;;;;5016396;28;20528;-63
2021/12/10 01:00:59;;;;;;;11.63;8.43;;;21.40;49.90;;;;;;5020235;28;20025;-63
2021/12/10 01:03:33;;;;;;;10.15;8.02;;;21.40;49.90;;;;;;5020127;28;20084;-63
2021/12/10 01:06:04;;;;;;;11.32;8.10;;;21.40;49.90;;;;;;5022467;28;20123;-63
2021/12/10 01:08:31;;;;;;;10.63;8.07;;;21.40;49.90;;;;;;5021485;28;20055;-64
2021/12/10 01:11:04;;;;;;;11.20;8.00;;;21.40;49.90;;;;;;5026922;28;20025;-64
2021/12/10 01:13:34;;;;;;;11.80;8.50;;;21.30;49.90;;;;;;5015355;28;20123;-64
2021/12/10 01:27:11;;;;;;;10.43;7.72;;;21.30;50.00;;;;;;5017553;28;20045;-62
2021/12/10 01:29:42;;;;;;;10.30;7.55;;;21.30;50.00;;;;;;5017843;28;20139;-62
2021/12/10 01:32:16;;;;;;;10.10;7.72;;;21.20;50.00;;;;;;5018552;28;20474;-63
2021/12/10 01:34:43;;;;;;;10.88;7.75;;;21.20;50.00;;;;;;5011929;28;20033;-62
2021/12/10 01:37:10;;;;;;;9.68;7.28;;;21.20;50.00;;;;;;5009678;28;20033;-63
2021/12/10 01:39:38;;;;;;;10.40;7.68;;;21.20;50.00;;;;;;5016644;28;20029;-63
2021/12/10 01:42:17;;;;;;;10.35;7.50;;;21.20;50.00;;;;;;5014929;28;20531;-63
2021/12/10 01:44:47;;;;;;;10.45;7.32;;;21.20;50.00;;;;;;5015164;28;20104;-64
2021/12/10 01:47:16;;;;;;;10.63;7.85;;;21.20;50.10;;;;;;5017092;28;20025;-63
2021/12/10 01:49:43;;;;;;;10.13;7.32;;;21.20;50.10;;;;;;5016176;28;20136;-63
2021/12/10 01:52:11;;;;;;;10.32;7.43;;;21.10;50.10;;;;;;5019353;28;20374;-63
2021/12/10 01:54:40;;;;;;;9.63;7.35;;;21.10;50.10;;;;;;5018086;28;20113;-63
2021/12/10 01:57:07;;;;;;;11.15;7.90;;;21.10;50.10;;;;;;5015202;28;20034;-63
2021/12/10 01:59:35;;;;;;;10.05;7.07;;;21.10;50.10;;;;;;5021111;28;20045;-63
2021/12/10 02:02:09;;;;;;;10.13;7.63;;;21.10;50.10;;;;;;5021338;28;20038;-63
2021/12/10 02:04:36;;;;;;;11.25;7.55;;;21.10;50.10;;;;;;5012422;28;20025;-63
2021/12/10 02:07:04;;;;;;;10.02;7.55;;;21.10;50.10;;;;;;5016922;28;20509;-63
2021/12/10 02:09:29;;;;;;;10.00;7.40;;;21.10;50.20;;;;;;5022008;28;20098;-64
2021/12/10 02:11:55;;;;;;;10.27;7.40;;;21.10;50.20;;;;;;5020007;28;20127;-64
2021/12/10 02:14:22;;;;;;;9.88;7.35;;;21.10;50.20;;;;;;5021384;28;20139;-63
2021/12/10 02:16:50;;;;;;;9.77;7.28;;;21.00;50.10;;;;;;5021552;28;20410;-64
2021/12/10 02:19:18;;;;;;;9.95;7.28;;;21.00;50.20;;;;;;5014599;28;20151;-62
2021/12/10 02:21:45;;;;;;;9.80;7.43;;;21.00;50.20;;;;;;5021034;28;20542;-64
2021/12/10 02:24:12;;;;;;;9.23;7.05;;;21.00;50.20;;;;;;5019634;28;20127;-62
2021/12/10 02:26:53;;;;;;;9.85;7.20;;;21.00;50.20;;;;;;5021320;28;20037;-63
2021/12/10 02:29:23;;;;;;;11.43;7.85;;;21.00;50.20;;;;;;5015294;28;20026;-63
2021/12/10 02:31:49;;;;;;;;;;;21.00;50.20;;;;;;5019617;28;20544;-62
2021/12/10 02:34:14;;;;;;;10.73;7.32;;;21.00;50.20;;;;;;5018342;28;19913;-63
2021/12/10 02:36:41;;;;;;;10.45;7.60;;;21.00;50.20;;;;;;5014834;28;20033;-64
2021/12/10 02:39:12;;;;;;;9.43;7.15;;;21.00;50.20;;;;;;5019333;28;20026;-63
2021/12/10 02:41:39;;;;;;;9.77;6.80;;;20.90;50.20;;;;;;5016839;28;20748;-63
2021/12/10 02:44:08;;;;;;;11.10;7.22;;;20.90;50.20;;;;;;5016258;28;20037;-62
2021/12/10 02:46:34;;;;;;;9.55;6.97;;;20.90;50.20;;;;;;5016026;28;20045;-61
2021/12/10 02:49:00;;;;;;;9.40;7.00;;;20.90;50.70;;;;;;5017377;28;20370;-62
2021/12/10 02:51:26;;;;;;;9.15;6.85;;;20.90;50.30;;;;;;5020911;28;20477;-61
2021/12/10 02:53:53;;;;;;;8.48;6.60;;;20.90;50.20;;;;;;5013540;28;20042;-63
2021/12/10 02:56:21;;;;;;;9.63;6.88;;;20.90;50.30;;;;;;5013435;28;20058;-63
2021/12/10 02:58:53;;;;;;;8.38;6.88;;;20.90;50.30;;;;;;5018687;28;20029;-64
2021/12/10 03:01:41;;;;;;;8.75;6.57;;;20.80;50.30;;;;;;5011471;28;20068;-61
2021/12/10 03:04:08;;;;;;;10.25;7.07;;;20.90;50.30;;;;;;5011322;28;20474;-63
2021/12/10 03:06:43;;;;;;;8.82;6.88;;;20.80;50.30;;;;;;5011890;28;20447;-63
2021/12/10 03:09:09;;;;;;;9.32;6.80;;;20.80;50.80;;;;;;5024172;28;20760;-63
2021/12/10 03:11:38;;;;;;;9.15;7.05;;;20.80;50.30;;;;;;5018704;28;20057;-63
2021/12/10 03:14:10;;;;;;;8.40;6.30;;;20.80;50.30;;;;;;5014087;28;20493;-63
2021/12/10 03:16:40;;;;;;;8.32;6.18;;;20.80;50.40;;;;;;5020027;28;20022;-63
2021/12/10 03:19:06;;;;;;;9.80;6.78;;;20.80;50.40;;;;;;5014446;28;20418;-61
2021/12/10 03:21:35;;;;;;;9.02;7.00;;;20.80;50.40;;;;;;5021451;28;20057;-62
2021/12/10 03:24:01;;;;;;;8.32;6.32;;;20.70;50.30;;;;;;5017151;28;20160;-60
2021/12/10 03:26:26;;;;;;;9.10;6.72;;;20.70;50.40;;;;;;5021400;28;20169;-63
2021/12/10 03:28:53;;;;;;;8.65;6.32;;;20.80;50.40;;;;;;5011126;28;20038;-63
2021/12/10 03:31:22;;;;;;;8.40;6.53;;;20.70;50.40;;;;;;5014239;28;20457;-63
2021/12/10 03:33:49;;;;;;;10.00;6.73;;;20.70;50.40;;;;;;5010469;28;20080;-63
2021/12/10 03:36:16;;;;;;;7.72;6.07;;;20.70;50.40;;;;;;5011811;28;20026;-64
2021/12/10 03:38:42;;;;;;;8.48;6.00;;;20.70;50.40;;;;;;5013191;28;20378;-63
2021/12/10 03:41:09;;;;;;;7.78;5.82;;;20.70;50.40;;;;;;5014503;28;20108;-64
2021/12/10 03:43:36;;;;;;;8.35;6.07;;;20.70;50.40;;;;;;5013872;28;20040;-60
2021/12/10 03:46:03;;;;;;;8.73;6.47;;;20.70;50.40;;;;;;5017674;28;20029;-65
2021/12/10 03:48:32;;;;;;;8.10;5.95;;;20.70;50.40;;;;;;5010276;28;20112;-63
2021/12/10 03:50:59;;;;;;;8.60;6.22;;;20.70;50.40;;;;;;5019692;28;20025;-60
2021/12/10 03:53:25;;;;;;;8.25;6.10;;;20.70;50.40;;;;;;5009467;28;20133;-64
2021/12/10 03:55:56;;;;;;;7.97;5.88;;;20.60;50.40;;;;;;5016673;28;20129;-64
2021/12/10 03:58:21;;;;;;;8.95;6.15;;;20.70;50.40;;;;;;5024282;28;20090;-65
2021/12/10 04:00:50;;;;;;;8.20;6.13;;;20.60;50.40;;;;;;5020383;28;20045;-63
2021/12/10 04:03:20;;;;;;;8.13;6.18;;;20.60;50.40;;;;;;5017775;28;20032;-61
2021/12/10 04:05:46;;;;;;;7.93;5.50;;;20.60;50.40;;;;;;5014782;28;20068;-63
2021/12/10 04:08:12;;;;;;;8.82;6.28;;;20.60;50.40;;;;;;5024151;28;20048;-63
2021/12/10 04:10:39;;;;;;;7.22;5.72;;;20.60;50.40;;;;;;5019734;28;20033;-63
2021/12/10 04:13:06;;;;;;;7.50;5.53;;;20.60;50.40;;;;;;5016454;28;20036;-63
2021/12/10 04:15:34;;;;;;;7.80;5.97;;;20.60;50.40;;;;;;5018621;28;20041;-62
2021/12/10 04:18:00;;;;;;;8.57;6.10;;;20.60;50.50;;;;;;5030632;28;20041;-64
2021/12/10 04:20:28;;;;;;;7.22;5.57;;;20.60;50.50;;;;;;5014809;28;20026;-63
2021/12/10 04:22:54;;;;;;;6.97;5.43;;;20.60;50.50;;;;;;5018064;28;20448;-63
2021/12/10 04:25:24;;;;;;;7.22;5.38;;;20.60;50.50;;;;;;5019067;28;20720;-64
2021/12/10 04:27:52;;;;;;;7.93;5.50;;;20.60;50.50;;;;;;5018940;28;20109;-62
2021/12/10 04:30:18;;;;;;;8.38;5.10;;;20.50;50.50;;;;;;5015863;28;20036;-64
2021/12/10 04:32:44;;;;;;;7.18;5.22;;;20.50;50.50;;;;;;5019482;28;20679;-62
2021/12/10 04:35:12;;;;;;;7.88;5.50;;;20.50;50.50;;;;;;5015087;28;20037;-61
2021/12/10 04:37:39;;;;;;;7.93;5.70;;;20.50;50.50;;;;;;5024301;28;20022;-63
2021/12/10 04:40:08;;;;;;;6.90;5.53;;;20.50;50.50;;;;;;5025997;28;20026;-63
2021/12/10 04:42:34;;;;;;;7.25;5.10;;;20.50;50.50;;;;;;5014773;28;20041;-63
2021/12/10 04:45:01;;;;;;;8.27;5.30;;;20.50;50.60;;;;;;5020722;28;20040;-63
2021/12/10 04:47:28;;;;;;;7.13;5.15;;;20.50;50.60;;;;;;5023395;28;20105;-63
2021/12/10 04:49:55;;;;;;;6.53;4.93;;;20.40;50.50;;;;;;5008101;28;20478;-63
2021/12/10 04:52:22;;;;;;;6.88;5.18;;;20.50;50.60;;;;;;5014955;28;20354;-64
2021/12/10 04:54:48;;;;;;;6.53;5.10;;;20.40;50.60;;;;;;5014676;28;20045;-62
2021/12/10 04:57:15;;;;;;;6.90;5.30;;;20.50;50.60;;;;;;5017353;28;20023;-62
2021/12/10 04:59:42;;;;;;;7.30;5.28;;;20.40;50.60;;;;;;5016476;28;20083;-62
2021/12/10 05:02:10;;;;;;;7.13;5.13;;;20.40;50.60;;;;;;5015992;28;20044;-63
2021/12/10 05:04:36;;;;;;;6.78;4.90;;;20.40;50.60;;;;;;5012768;28;20474;-63
2021/12/10 05:07:04;;;;;;;6.75;5.10;;;20.40;50.70;;;;;;5023092;28;20034;-60
2021/12/10 05:09:30;;;;;;;6.45;4.82;;;20.40;50.70;;;;;;5023344;28;20042;-63
2021/12/10 05:11:58;;;;;;;8.23;5.18;;;20.40;50.70;;;;;;5015981;28;20021;-63
2021/12/10 05:14:25;;;;;;;6.53;4.82;;;20.40;50.70;;;;;;5011598;28;20651;-60
2021/12/10 05:16:53;;;;;;;6.53;4.80;;;20.40;50.70;;;;;;5016073;28;20021;-63
2021/12/10 05:19:21;;;;;;;6.07;4.75;;;20.40;50.70;;;;;;5015664;28;20025;-60
2021/12/10 05:21:48;;;;;;;5.70;4.55;;;20.40;50.70;;;;;;5017501;28;20053;-62
2021/12/10 05:24:15;;;;;;;5.85;4.53;;;20.40;50.70;;;;;;5009809;28;20061;-62
2021/12/10 05:26:42;;;;;;;6.10;4.53;;;20.40;50.70;;;;;;5019154;28;20033;-61
2021/12/10 05:29:08;;;;;;;7.00;4.65;;;20.40;50.80;;;;;;5019243;28;20039;-62
2021/12/10 05:31:36;;;;;;;6.22;4.45;;;20.40;50.80;;;;;;5016411;28;20037;-61
2021/12/10 05:34:03;;;;;;;6.43;4.63;;;20.40;50.80;;;;;;5011895;28;20374;-60
2021/12/10 05:36:29;;;;;;;6.00;4.22;;;20.40;50.70;;;;;;5019902;28;20025;-63
2021/12/10 05:38:54;;;;;;;7.43;4.80;;;20.40;50.80;;;;;;5017153;28;20025;-62
2021/12/10 05:41:20;;;;;;;5.78;4.60;;;20.30;50.70;;;;;;5020650;28;20062;-63
2021/12/10 05:43:46;;;;;;;5.90;4.50;;;20.30;50.70;;;;;;5014819;28;20029;-62
2021/12/10 05:46:13;;;;;;;5.38;4.13;;;20.40;50.80;;;;;;5026948;28;20028;-60
2021/12/10 05:48:40;;;;;;;5.45;3.92;;;20.30;50.70;;;;;;5013115;28;20061;-61
2021/12/10 05:51:05;;;;;;;5.70;4.25;;;20.30;50.80;;;;;;5015218;28;20478;-61
2021/12/10 05:53:31;;;;;;;6.50;4.15;;;20.30;50.80;;;;;;5018605;28;20033;-63
2021/12/10 05:55:57;;;;;;;6.05;4.47;;;20.30;50.80;;;;;;5021460;28;20070;-61
2021/12/10 05:58:23;;;;;;;5.55;4.00;;;20.30;50.80;;;;;;5012567;28;20044;-61
2021/12/10 06:00:54;;;;;;;6.07;4.30;;;20.30;50.80;;;;;;5018670;28;20580;-62
2021/12/10 06:03:20;;;;;;;5.70;4.13;;;20.30;50.80;;;;;;5010288;28;20374;-60
2021/12/10 06:05:47;;;;;;;5.78;4.43;;;20.30;50.80;;;;;;5013603;28;20379;-60
2021/12/10 06:08:14;;;;;;;5.40;3.97;;;20.30;50.80;;;;;;5012653;28;20061;-61
2021/12/10 06:10:40;;;;;;;5.90;3.67;;;20.30;50.80;;;;;;5020219;28;20792;-61
2021/12/10 06:13:07;;;;;;;5.60;4.10;;;20.30;50.80;;;;;;5011873;28;20037;-62
2021/12/10 06:15:33;;;;;;;5.55;4.20;;;20.30;50.80;;;;;;5013471;28;20022;-60
2021/12/10 06:17:59;;;;;;;5.13;3.83;;;20.30;50.80;;;;;;5012468;28;20171;-59
2021/12/10 06:20:31;;;;;;;5.03;3.90;;;20.30;50.80;;;;;;5016514;28;20060;-60
2021/12/10 06:22:59;;;;;;;5.68;4.18;;;20.30;50.90;;;;;;5019568;28;20033;-60
2021/12/10 06:25:26;;;;;;;5.33;3.83;;;20.30;50.90;;;;;;5019902;28;20561;-60
2021/12/10 06:27:51;;;;;;;6.10;4.13;;;20.30;50.90;;;;;;5022128;28;20183;-61
2021/12/10 06:30:21;;;;;;;5.57;4.03;;;20.30;50.90;;;;;;5018612;28;20037;-63
2021/12/10 06:32:47;;;;;;;;;;;20.30;50.90;;;;;;5010431;28;20056;-60
2021/12/10 06:35:14;;;;;;;4.95;3.53;;;20.30;50.90;;;;;;5010367;28;19914;-60
2021/12/10 06:37:42;;;;;;;5.80;3.90;;;20.20;50.80;;;;;;5023840;28;20112;-61
2021/12/10 06:40:10;;;;;;;4.97;3.78;;;20.20;50.80;;;;;;5015926;28;20037;-61
2021/12/10 06:42:36;;;;;;;4.80;3.72;;;20.30;51.20;;;;;;5016868;28;20026;-61
2021/12/10 06:45:06;;;;;;;5.47;4.20;;;20.40;51.90;;;;;;5021664;28;20060;-60
2021/12/10 06:47:32;;;;;;;4.75;3.75;;;20.60;52.00;;;;;;5016908;28;20131;-62
2021/12/10 06:49:58;;;;;;;5.95;4.03;;;20.70;52.00;;;;;;5021221;28;20382;-60
2021/12/10 06:52:23;;;;;;;5.85;4.13;;;20.90;52.20;;;;;;5010897;28;20036;-60
2021/12/10 06:54:49;;;;;;;5.30;3.88;;;21.10;52.20;;;;;;5012970;28;20026;-59
2021/12/10 06:57:15;;;;;;;4.85;3.88;;;21.20;52.30;;;;;;5012706;28;20048;-62
2021/12/10 06:59:41;;;;;;;5.30;3.85;;;21.30;52.30;;;;;;5015998;28;20712;-61
2021/12/10 07:02:06;;;;;;;4.47;3.47;;;21.50;52.10;;;;;;5016896;28;20149;-60
2021/12/10 07:04:32;;;;;;;4.07;3.10;;;21.70;51.80;;;;;;5016795;28;20049;-60
2021/12/10 07:06:58;;;;;;;4.65;3.50;;;21.80;51.70;;;;;;5013536;28;20045;-60
2021/12/10 07:09:25;;;;;;;6.25;3.17;;;22.00;51.50;;;;;;5015347;28;20033;-60
2021/12/10 07:11:53;;;;;;;4.35;3.35;;;22.10;51.90;;;;;;5019260;28;20352;-61
2021/12/10 07:14:19;;;;;;;4.05;2.90;;;22.30;51.20;;;;;;5010886;28;20038;-61
2021/12/10 07:16:46;;;;;;;3.88;2.53;;;22.50;51.20;;;;;;5017655;28;20094;-63
2021/12/10 07:19:13;;;;;;;3.28;2.22;;;22.60;51.10;;;;;;5007913;28;20045;-60
2021/12/10 07:21:39;;;;;;;3.28;2.25;;;22.50;50.90;;;;;;5018119;28;20025;-60
2021/12/10 07:24:10;;;;;;;3.60;2.40;;;22.40;51.50;;;;;;5009419;28;20053;-61
2021/12/10 07:26:37;;;;;;;3.35;2.25;;;22.40;51.00;;;;;;5022457;28;20056;-60
2021/12/10 07:29:05;;;;;;;3.47;2.42;;;22.40;51.20;;;;;;5012171;28;20068;-61
2021/12/10 07:31:32;;;;;;;4.22;2.90;;;22.30;51.80;;;;;;5017064;28;20469;-61
2021/12/10 07:33:57;;;;;;;3.72;2.80;;;22.50;51.60;;;;;;5016078;28;20025;-60
2021/12/10 07:36:24;;;;;;;4.53;3.28;;;22.80;51.30;;;;;;5019004;28;20112;-62
2021/12/10 07:38:50;;;;;;;3.88;2.67;;;23.10;50.80;;;;;;5014065;28;20029;-61
2021/12/10 07:41:16;;;;;;;3.65;2.80;;;23.30;50.40;;;;;;5015844;28;20852;-60
2021/12/10 07:43:42;;;;;;;3.50;2.30;;;23.50;50.20;;;;;;5009278;28;20034;-63
2021/12/10 07:46:08;;;;;;;4.07;1.83;;;23.50;49.90;;;;;;5014633;28;20033;-60
2021/12/10 07:48:35;;;;;;;2.78;1.80;;;23.50;50.00;;;;;;5018519;28;20041;-60
2021/12/10 07:51:09;;;;;;;2.70;2.08;;;23.30;50.20;;;;;;5017910;28;20393;-62
2021/12/10 07:53:36;;;;;;;2.90;2.05;;;23.20;50.40;;;;;;5030840;28;20540;-59
2021/12/10 07:56:04;;;;;;;2.95;1.90;;;23.20;50.70;;;;;;5021046;28;20025;-59
2021/12/10 07:58:32;;;;;;;3.92;2.20;;;23.20;50.70;;;;;;5020394;28;20119;-59
2021/12/10 08:00:59;;;;;;;3.63;2.20;;;23.10;50.90;;;;;;5014775;28;20049;-59
2021/12/10 08:03:25;;;;;;;2.65;1.92;;;23.10;52.00;;;;;;5023644;28;20065;-59
2021/12/10 08:05:52;;;;;;;2.50;1.90;;;23.20;51.40;;;;;;5016106;28;20738;-61
2021/12/10 08:08:18;;;;;;;3.38;2.22;;;23.20;51.30;;;;;;5015986;28;20034;-59
2021/12/10 08:10:47;;;;;;;2.70;1.75;;;23.10;51.40;;;;;;5016718;28;20121;-59
2021/12/10 08:13:14;;;;;;;2.65;1.75;;;23.20;51.80;;;;;;5015043;28;20030;-60
2021/12/10 08:15:40;;;;;;;3.53;2.40;;;23.20;51.50;;;;;;5019519;28;20089;-59
2021/12/10 08:18:06;;;;;;;3.28;2.40;;;23.20;51.60;;;;;;5012525;28;20378;-60
2021/12/10 08:20:33;;;;;;;4.18;3.15;;;23.20;50.20;;;;;;5010418;28;20034;-58
2021/12/10 08:22:59;;;;;;;4.63;3.63;;;23.10;47.90;;;;;;5018326;28;20504;-59
2021/12/10 08:25:26;;;;;;;4.20;3.17;;;23.10;47.20;;;;;;5009608;28;20053;-58
2021/12/10 08:27:53;;;;;;;3.90;2.90;;;23.10;47.60;;;;;;5018854;28;20389;-59
2021/12/10 08:30:22;;;;;;;3.28;2.50;;;23.10;47.90;;;;;;5017740;28;20053;-58
2021/12/10 08:32:48;;;;;;;3.38;2.50;;;23.00;48.20;;;;;;5016698;28;20048;-59
2021/12/10 08:35:19;;;;;;;3.00;2.10;;;23.10;48.50;;;;;;5005986;28;20022;-59
2021/12/10 08:37:46;;;;;;;3.22;2.35;;;23.10;48.70;;;;;;5023175;28;20018;-59
2021/12/10 08:40:15;;;;;;;3.60;2.38;;;23.10;48.80;;;;;;5018173;28;20029;-59
2021/12/10 08:42:41;;;;;;;3.53;2.53;;;23.10;49.00;;;;;;5021871;28;20060;-60
2021/12/10 08:45:07;;;;;;;3.38;2.45;;;23.10;49.70;;;;;;5016419;28;20026;-60
2021/12/10 08:47:33;;;;;;;3.58;2.25;;;23.10;49.40;;;;;;5021383;28;20103;-61
2021/12/10 08:49:59;;;;;;;3.17;2.30;;;23.10;49.60;;;;;;5016758;28;20034;-59
2021/12/10 08:52:26;;;;;;;3.40;2.40;;;23.20;49.80;;;;;;5023087;28;20300;-59
2021/12/10 08:54:52;;;;;;;3.03;2.10;;;23.20;50.00;;;;;;5016086;28;20431;-59
2021/12/10 08:57:17;;;;;;;3.50;2.45;;;23.20;50.70;;;;;;5022340;28;20071;-60
2021/12/10 08:59:43;;;;;;;3.67;1.90;;;23.20;50.30;;;;;;5014712;28;20022;-61
2021/12/10 09:02:13;;;;;;;3.40;2.20;;;23.20;50.50;;;;;;5014667;28;20033;-59
2021/12/10 09:04:40;;;;;;;3.80;2.47;;;23.20;50.90;;;;;;5014999;28;20026;-60
2021/12/10 09:07:09;;;;;;;3.78;2.78;;;23.20;48.40;;;;;;5014942;28;20041;-62
2021/12/10 09:09:36;;;;;;;;;;;23.10;48.00;;;;;;5017610;28;20037;-63
2021/12/10 09:12:06;;;;;;;3.03;2.20;;;23.20;48.40;;;;;;5010560;28;19955;-58
2021/12/10 09:14:42;;;;;;;3.30;2.30;;;23.20;48.60;;;;;;5017828;28;20026;-59
2021/12/10 09:17:09;;;;;;;3.20;2.17;;;23.20;48.70;;;;;;5012698;28;20567;-60
2021/12/10 09:19:36;;;;;;;2.90;2.05;;;23.20;49.00;;;;;;5009246;28;20026;-59
2021/12/10 09:22:03;;;;;;;4.55;2.00;;;23.20;49.20;;;;;;5015390;28;20056;-59
2021/12/10 09:24:29;;;;;;;2.55;1.88;;;23.20;49.30;;;;;;5014077;28;20038;-61
2021/12/10 09:26:57;;;;;;;3.38;2.20;;;23.20;49.40;;;;;;5018082;28;20045;-59
2021/12/10 09:29:25;;;;;;;2.72;1.92;;;23.20;49.70;;;;;;5009640;28;20069;-59
2021/12/10 09:31:52;;;;;;;2.90;2.03;;;23.20;50.10;;;;;;5020053;28;20034;-61
2021/12/10 09:34:18;;;;;;;3.00;2.00;;;23.30;51.50;;;;;;5011740;28;20049;-60
2021/12/10 09:36:46;;;;;;;3.50;2.15;;;23.30;51.10;;;;;;5013486;28;20180;-59
2021/12/10 09:39:13;;;;;;;3.67;1.90;;;23.40;50.90;;;;;;5011178;28;20036;-59
2021/12/10 09:41:39;;;;;;;3.75;2.00;;;23.30;50.80;;;;;;5011106;28;20033;-62
2021/12/10 09:44:07;;;;;;;3.17;1.80;;;23.40;51.00;;;;;;5014942;28;20420;-59
2021/12/10 09:46:33;;;;;;;2.93;2.00;;;23.30;51.30;;;;;;5014542;28;20080;-58
2021/12/10 09:48:59;;;;;;;2.88;2.00;;;23.40;52.30;;;;;;5012193;28;20117;-59
2021/12/10 09:51:29;;;;;;;2.80;2.00;;;23.40;51.00;;;;;;5010635;28;20104;-62
2021/12/10 09:53:59;;;;;;;2.80;2.00;;;23.40;50.90;;;;;;5015772;28;20417;-60
2021/12/10 09:56:25;;;;;;;4.15;2.30;;;23.40;50.90;;;;;;5012827;28;20021;-61
2021/12/10 09:58:53;;;;;;;3.47;2.40;;;23.30;48.00;;;;;;5014598;28;20144;-59
2021/12/10 10:01:32;;;;;;;3.10;2.30;;;23.30;46.90;;;;;;5012877;28;20050;-59
2021/12/10 10:04:02;;;;;;;3.03;2.28;;;23.20;46.90;;;;;;5009630;28;20038;-59
2021/12/10 10:06:29;;;;;;;;;;;23.20;46.90;;;;;;5010705;28;20033;-62
2021/12/10 10:08:55;;;;;;;2.90;2.08;;;23.10;46.70;;;;;;5018524;28;20539;-58
2021/12/10 10:11:25;;;;;;;3.22;2.20;;;23.10;46.70;;;;;;5017276;28;20038;-59
2021/12/10 10:13:52;;;;;;;3.60;2.30;;;23.10;46.80;;;;;;5013055;28;20088;-59
2021/12/10 10:16:20;;;;;;;4.13;2.50;;;23.00;46.50;;;;;;5017720;28;20028;-61
2021/12/10 10:18:49;;;;;;;3.40;2.15;;;23.00;46.90;;;;;;5010713;28;20435;-58
2021/12/10 10:21:20;;;;;;;3.57;2.33;;;22.90;46.80;;;;;;5009311;28;20049;-61
2021/12/10 10:23:46;;;;;;;3.25;2.20;;;22.90;46.70;;;;;;5009300;28;20022;-63
2021/12/10 10:26:17;;;;;;;3.08;1.88;;;22.80;46.90;;;;;;5019321;28;20064;-59
2021/12/10 10:28:44;;;;;;;3.60;2.33;;;22.80;47.00;;;;;;5019068;28;20045;-59
2021/12/10 10:31:18;;;;;;;2.90;2.13;;;22.80;47.20;;;;;;5024523;28;20041;-60
2021/12/10 10:33:48;;;;;;;3.28;2.05;;;22.80;47.10;;;;;;5014388;28;20045;-57
2021/12/10 10:36:19;;;;;;;3.00;2.10;;;22.80;47.20;;;;;;5022766;28;20037;-58
2021/12/10 10:38:49;;;;;;;3.08;2.13;;;22.80;47.30;;;;;;5026809;28;20110;-57
2021/12/10 10:41:16;;;;;;;;;;;22.70;47.30;;;;;;5028734;28;20029;-61
2021/12/10 10:43:42;;;;;;;3.10;2.05;;;22.80;47.40;;;;;;5022739;28;19909;-60
2021/12/10 10:46:08;;;;;;;3.45;2.15;;;22.70;47.40;;;;;;5026885;28;20032;-60
2021/12/10 10:48:34;;;;;;;3.75;2.40;;;22.70;47.40;;;;;;5011426;28;20029;-58
2021/12/10 10:51:16;;;;;;;3.40;2.13;;;22.70;47.50;;;;;;5010764;28;20036;-62
2021/12/10 10:53:53;;;;;;;3.28;2.15;;;22.70;47.50;;;;;;5009291;28;20041;-58
2021/12/10 10:56:32;;;;;;;3.80;2.05;;;22.70;47.50;;;;;;5012401;28;20087;-60
2021/12/10 10:59:02;;;;;;;7.20;3.42;;;22.70;47.60;;;;;;5012165;28;20056;-58
2021/12/10 11:01:40;;;;;;;5.47;2.92;;;22.70;47.60;;;;;;5015334;28;20061;-58
2021/12/10 11:04:14;;;;;;;5.95;2.60;;;22.60;47.70;;;;;;5007041;28;20585;-58
2021/12/10 11:06:45;;;;;;;5.85;2.95;;;22.60;47.60;;;;;;5009512;28;20049;-58
2021/12/10 11:09:15;;;;;;;8.15;3.83;;;22.60;47.60;;;;;;5014763;28;20076;-57
2021/12/10 11:11:49;;;;;;;8.18;3.38;;;22.60;47.50;;;;;;5010078;28;20097;-57
2021/12/10 11:14:24;;;;;;;7.03;3.42;;;22.60;47.50;;;;;;5013275;28;20068;-58
2021/12/10 11:17:01;;;;;;;6.05;3.10;;;22.60;47.50;;;;;;5021300;28;20135;-58
2021/12/10 11:19:29;;;;;;;5.63;2.97;;;22.60;47.60;;;;;;5009790;28;20427;-57
2021/12/10 11:22:09;;;;;;;5.90;2.88;;;22.60;47.60;;;;;;5013070;28;20022;-61
2021/12/10 11:24:56;;;;;;;5.28;2.33;;;22.50;47.50;;;;;;5013833;28;20037;-60
2021/12/10 11:27:27;;;;;;;5.28;2.70;;;22.50;47.60;;;;;;5017559;28;20375;-58
2021/12/10 11:30:02;;;;;;;4.97;2.67;;;22.50;47.60;;;;;;5020370;28;20042;-58
2021/12/10 11:32:48;;;;;;;4.03;2.63;;;22.50;47.70;;;;;;5016382;28;20130;-58
2021/12/10 11:35:22;;;;;;;5.45;2.47;;;22.50;47.70;;;;;;5011074;28;20033;-60
2021/12/10 11:37:54;;;;;;;5.25;2.58;;;22.50;47.70;;;;;;5015043;28;20087;-58
2021/12/10 11:40:23;;;;;;;6.10;2.40;;;22.50;47.70;;;;;;5018980;28;20331;-60
2021/12/10 11:42:56;;;;;;;5.78;2.50;;;22.50;47.70;;;;;;5010468;28;20041;-59
2021/12/10 11:45:32;;;;;;;4.25;2.30;;;22.50;47.70;;;;;;5015696;28;20113;-58
2021/12/10 11:48:08;;;;;;;4.53;2.17;;;22.50;47.80;;;;;;5010752;28;20025;-60
2021/12/10 11:50:38;;;;;;;4.68;2.58;;;22.50;47.90;;;;;;5015375;28;20136;-61
2021/12/10 11:53:11;;;;;;;4.75;2.33;;;22.50;48.00;;;;;;5016180;28;20026;-58
2021/12/10 11:55:43;;;;;;;4.10;2.20;;;22.50;47.90;;;;;;5014542;28;20038;-62
2021/12/10 11:58:15;;;;;;;4.82;2.13;;;22.50;48.00;;;;;;5019095;28;20022;-59
2021/12/10 12:00:44;;;;;;;5.43;2.42;;;22.50;48.10;;;;;;5011530;28;20052;-59
2021/12/10 12:03:10;;;;;;;;;;;22.50;48.00;;;;;;5013063;28;20162;-58
2021/12/10 12:05:41;;;;;;;5.15;2.40;;;22.40;48.00;;;;;;5017313;28;20800;-59
2021/12/10 12:08:18;;;;;;;4.78;2.55;;;22.40;48.00;;;;;;5012035;28;20034;-59
2021/12/10 12:10:47;;;;;;;5.63;2.40;;;22.40;48.10;;;;;;5014773;28;20111;-59
2021/12/10 12:15:56;;;;;;;3.88;2.08;;;22.40;48.20;;;;;;5012982;28;20025;-62
2021/12/10 12:18:32;;;;;;;4.22;2.20;;;22.30;48.20;;;;;;5010298;28;20022;-59
2021/12/10 12:21:37;;;;;;;4.85;2.15;;;22.30;48.20;;;;;;5021977;28;20669;-59
2021/12/10 12:26:33;;;;;;;3.90;2.08;;;22.30;48.30;;;;;;5024342;28;20527;-59
2021/12/10 12:29:08;;;;;;;3.97;2.10;;;22.20;48.30;;;;;;5013044;28;20029;-60
2021/12/10 12:31:48;;;;;;;2.97;2.00;;;22.20;48.40;;;;;;5020637;28;20426;-59
2021/12/10 12:34:18;;;;;;;;;;;22.20;48.40;;;;;;5006525;28;20037;-60
2021/12/10 12:36:49;;;;;;;4.18;2.00;;;22.20;48.40;;;;;;5014006;28;20470;-61
2021/12/10 12:39:39;;;;;;;4.45;1.90;;;22.20;48.40;;;;;;5016760;28;20029;-61
2021/12/10 12:42:07;;;;;;;;;;;22.20;48.50;;;;;;5019595;28;20716;-59
2021/12/10 12:44:40;;;;;;;3.88;2.22;;;22.30;48.50;;;;;;5018104;28;19921;-58
2021/12/10 12:47:32;;;;;;;4.20;2.15;;;22.40;48.30;;;;;;5018305;28;20041;-61
2021/12/10 12:50:06;;;;;;;3.65;2.03;;;22.40;48.50;;;;;;5012420;28;20064;-60
2021/12/10 12:52:45;;;;;;;4.60;2.17;;;22.60;48.30;;;;;;5011887;28;20024;-61
2021/12/10 12:55:24;;;;;;;5.10;2.28;;;22.70;47.90;;;;;;5005508;28;20091;-60
2021/12/10 12:58:15;;;;;;;3.85;2.15;;;22.80;47.50;;;;;;5010499;28;20422;-59
2021/12/10 13:00:57;;;;;;;3.65;2.10;;;22.90;47.40;;;;;;5120799;22;20057;-67
2021/12/10 13:03:50;;;;;;;5.22;2.20;;;23.00;47.30;;;;;;5028236;28;20079;-67
2021/12/10 13:06:29;;;;;;;4.80;2.30;;;23.10;47.20;;;;;;5037034;28;20549;-67
2021/12/10 13:09:11;;;;;;;3.95;2.20;;;23.20;47.00;;;;;;5036430;28;20059;-65
2021/12/10 13:11:58;;;;;;;3.85;2.15;;;23.30;47.00;;;;;;5033383;28;20048;-67
2021/12/10 13:14:32;;;;;;;3.45;1.90;;;23.30;46.90;;;;;;5036950;28;20818;-68